createdAt,value
2022-08-18T00:01:22.458Z,11.57
2022-08-18T00:03:55.968Z,11.93
2022-08-18T00:06:28.695Z,12.10
2022-08-18T00:08:58.946Z,11.97
2022-08-18T00:11:27.734Z,12.87
2022-08-18T00:13:57.246Z,12.03
2022-08-18T00:16:25.819Z,12.83
2022-08-18T00:18:54.075Z,13.17
2022-08-18T00:21:22.354Z,12.83
2022-08-18T00:23:50.660Z,12.73
2022-08-18T00:26:18.952Z,13.17
2022-08-18T00:28:47.208Z,14.37
2022-08-18T00:31:16.688Z,13.97
2022-08-18T00:33:44.972Z,14.37
2022-08-18T00:36:14.703Z,14.07
2022-08-18T00:38:42.845Z,14.20
2022-08-18T00:41:11.008Z,14.23
2022-08-18T00:43:45.056Z,14.33
2022-08-18T00:46:20.321Z,15.00
2022-08-18T00:48:49.509Z,14.70
2022-08-18T00:51:27.500Z,15.80
2022-08-18T00:54:02.849Z,15.90
2022-08-18T00:56:37.457Z,16.10
2022-08-18T00:59:09.832Z,16.47
2022-08-18T01:01:41.361Z,16.30
2022-08-18T01:04:15.815Z,16.93
2022-08-18T01:06:51.802Z,17.33
2022-08-18T01:09:20.451Z,16.70
2022-08-18T01:11:48.812Z,17.57
2022-08-18T01:14:18.252Z,17.53
2022-08-18T01:17:05.829Z,17.97
2022-08-18T01:19:51.823Z,15.73
2022-08-18T01:22:26.789Z,16.53
2022-08-18T01:25:17.880Z,16.70
2022-08-18T01:27:46.481Z,16.10
2022-08-18T01:30:19.088Z,16.03
2022-08-18T01:32:47.248Z,16.80
2022-08-18T01:35:18.357Z,16.40
2022-08-18T01:37:46.559Z,16.23
2022-08-18T01:41:17.681Z,17.10
2022-08-18T01:43:07.197Z,16.00
2022-08-18T01:45:35.357Z,17.23
2022-08-18T01:48:04.715Z,16.20
2022-08-18T01:50:35.172Z,17.80
2022-08-18T01:53:05.545Z,17.67
2022-08-18T01:55:36.229Z,16.67
2022-08-18T01:58:05.515Z,16.93
2022-08-18T02:00:33.796Z,17.40
2022-08-18T02:03:03.091Z,18.00
2022-08-18T02:05:39.585Z,17.37
2022-08-18T02:08:08.672Z,17.70
2022-08-18T02:10:38.621Z,18.70
2022-08-18T02:13:06.850Z,17.80
2022-08-18T02:15:35.997Z,18.40
2022-08-18T02:18:04.442Z,18.33
2022-08-18T02:20:32.864Z,18.03
2022-08-18T02:23:03.030Z,17.80
2022-08-18T02:25:31.273Z,18.30
2022-08-18T02:28:00.783Z,18.73
2022-08-18T02:30:28.899Z,18.23
2022-08-18T02:32:59.140Z,17.30
2022-08-18T02:35:27.424Z,17.63
2022-08-18T02:37:55.545Z,16.73
2022-08-18T02:40:23.761Z,17.53
2022-08-18T02:42:52.773Z,18.07
2022-08-18T02:45:23.648Z,18.30
2022-08-18T02:47:54.076Z,19.27
2022-08-18T02:50:22.860Z,18.67
2022-08-18T02:52:51.049Z,19.93
2022-08-18T02:55:20.149Z,19.07
2022-08-18T02:57:50.080Z,19.40
2022-08-18T03:00:21.330Z,18.40
2022-08-18T03:02:52.107Z,17.23
2022-08-18T03:05:21.155Z,17.23
2022-08-18T03:07:51.052Z,16.87
2022-08-18T03:10:31.388Z,16.67
2022-08-18T03:13:02.277Z,17.07
2022-08-18T03:15:32.302Z,16.60
2022-08-18T03:18:02.131Z,16.70
2022-08-18T03:20:31.416Z,17.00
2022-08-18T03:23:05.672Z,18.13
2022-08-18T03:25:38.429Z,16.07
2022-08-18T03:28:07.024Z,16.83
2022-08-18T03:30:36.996Z,16.40
2022-08-18T03:33:05.549Z,16.83
2022-08-18T03:35:36.946Z,15.50
2022-08-18T03:38:05.950Z,14.87
2022-08-18T03:40:34.673Z,16.40
2022-08-18T03:43:48.589Z,16.03
2022-08-18T03:45:56.235Z,16.03
2022-08-18T03:48:25.386Z,16.30
2022-08-18T03:50:53.586Z,15.60
2022-08-18T03:53:21.778Z,14.77
2022-08-18T03:55:49.926Z,15.00
2022-08-18T03:58:18.043Z,14.87
2022-08-18T04:00:46.215Z,14.63
2022-08-18T04:03:21.368Z,15.37
2022-08-18T04:05:49.466Z,14.90
2022-08-18T04:08:18.205Z,14.47
2022-08-18T04:10:46.799Z,15.30
2022-08-18T04:13:14.999Z,13.23
2022-08-18T04:15:43.252Z,14.67
2022-08-18T04:18:12.267Z,15.60
2022-08-18T04:20:58.915Z,16.00
2022-08-18T04:23:28.152Z,14.37
2022-08-18T04:25:58.971Z,14.30
2022-08-18T04:28:28.288Z,14.97
2022-08-18T04:30:59.366Z,14.27
2022-08-18T04:33:28.503Z,15.13
2022-08-18T04:35:57.989Z,14.27
2022-08-18T04:38:26.452Z,14.53
2022-08-18T04:40:54.727Z,14.30
2022-08-18T04:43:23.231Z,14.67
2022-08-18T04:45:52.558Z,14.50
2022-08-18T04:48:20.825Z,13.97
2022-08-18T04:50:51.119Z,14.47
2022-08-18T04:53:34.524Z,14.27
2022-08-18T04:56:02.725Z,14.90
2022-08-18T04:58:31.176Z,13.93
2022-08-18T05:01:02.443Z,13.47
2022-08-18T05:03:30.662Z,13.37
2022-08-18T05:06:00.443Z,13.97
2022-08-18T05:08:30.307Z,13.93
2022-08-18T05:11:03.897Z,13.60
2022-08-18T05:13:32.604Z,13.07
2022-08-18T05:16:16.708Z,14.43
2022-08-18T05:18:46.517Z,14.53
2022-08-18T05:21:15.523Z,13.63
2022-08-18T05:23:47.479Z,13.63
2022-08-18T05:26:17.428Z,14.20
2022-08-18T05:28:46.715Z,13.80
2022-08-18T05:31:17.888Z,12.87
2022-08-18T05:33:47.566Z,13.20
2022-08-18T05:36:31.088Z,13.03
2022-08-18T05:39:08.690Z,16.07
2022-08-18T05:41:40.337Z,17.33
2022-08-18T05:44:11.875Z,13.73
2022-08-18T05:46:46.318Z,12.80
2022-08-18T05:49:15.700Z,14.47
2022-08-18T05:51:48.427Z,14.30
2022-08-18T05:54:38.454Z,15.00
2022-08-18T05:57:18.573Z,14.83
2022-08-18T05:59:49.106Z,12.97
2022-08-18T06:02:25.496Z,13.57
2022-08-18T06:04:56.995Z,13.70
2022-08-18T06:07:34.245Z,12.90
2022-08-18T06:10:06.853Z,12.33
2022-08-18T06:12:46.597Z,11.93
2022-08-18T06:15:20.469Z,12.23
2022-08-18T06:18:21.824Z,11.47
2022-08-18T06:21:26.463Z,11.87
2022-08-18T06:24:08.185Z,11.73
2022-08-18T06:26:48.022Z,11.10
2022-08-18T06:29:36.460Z,10.73
2022-08-18T06:32:14.084Z,10.30
2022-08-18T06:34:59.387Z,9.70
2022-08-18T06:37:56.424Z,10.00
2022-08-18T06:40:24.658Z,10.10
2022-08-18T06:42:54.197Z,10.37
2022-08-18T06:45:32.892Z,10.73
2022-08-18T06:48:15.427Z,10.80
2022-08-18T06:50:54.134Z,9.47
2022-08-18T06:53:27.736Z,9.23
2022-08-18T06:55:56.775Z,8.90
2022-08-18T06:58:31.451Z,9.07
2022-08-18T07:01:06.187Z,9.30
2022-08-18T07:03:47.804Z,8.97
2022-08-18T07:06:31.600Z,8.20
2022-08-18T07:09:24.057Z,8.57
2022-08-18T07:12:06.876Z,8.63
2022-08-18T07:14:48.557Z,8.30
2022-08-18T07:17:43.616Z,8.20
2022-08-18T07:20:22.035Z,7.88
2022-08-18T07:22:56.679Z,7.70
2022-08-18T07:25:32.229Z,7.20
2022-08-18T07:28:01.938Z,7.13
2022-08-18T07:30:36.941Z,7.50
2022-08-18T07:33:19.842Z,7.43
2022-08-18T07:35:56.506Z,7.10
2022-08-18T07:38:42.761Z,7.00
2022-08-18T07:41:20.269Z,7.20
2022-08-18T07:44:07.529Z,6.73
2022-08-18T07:46:47.352Z,6.30
2022-08-18T07:49:30.315Z,6.47
2022-08-18T07:52:06.993Z,6.60
2022-08-18T07:55:07.698Z,6.13
2022-08-18T07:57:46.899Z,6.47
2022-08-18T08:00:41.170Z,6.60
2022-08-18T08:03:30.560Z,7.00
2022-08-18T08:06:07.255Z,6.03
2022-08-18T08:08:44.248Z,5.30
2022-08-18T08:11:28.894Z,5.23
2022-08-18T08:14:25.660Z,5.53
2022-08-18T08:17:22.847Z,5.23
2022-08-18T08:20:19.203Z,5.10
2022-08-18T08:23:03.747Z,4.87
2022-08-18T08:25:46.923Z,4.83
2022-08-18T08:28:29.914Z,5.53
2022-08-18T08:31:35.314Z,4.40
2022-08-18T08:34:08.747Z,4.70
2022-08-18T08:36:44.915Z,4.87
2022-08-18T08:39:20.842Z,4.83
2022-08-18T08:41:57.898Z,4.18
2022-08-18T08:44:59.193Z,3.58
2022-08-18T08:47:36.672Z,3.90
2022-08-18T08:50:10.288Z,3.45
2022-08-18T08:52:46.968Z,3.35
2022-08-18T08:55:21.443Z,3.92
2022-08-18T08:57:55.024Z,3.20
2022-08-18T09:00:23.398Z,3.22
2022-08-18T09:03:17.766Z,3.25
2022-08-18T09:06:10.922Z,3.70
2022-08-18T09:09:06.371Z,3.05
2022-08-18T09:12:08.578Z,2.70
2022-08-18T09:15:18.478Z,3.03
2022-08-18T09:18:28.551Z,3.08
2022-08-18T09:21:09.446Z,2.78
2022-08-18T09:23:47.304Z,2.70
2022-08-18T09:26:40.020Z,3.00
2022-08-18T09:29:23.305Z,3.05
2022-08-18T09:32:36.814Z,3.17
2022-08-18T09:35:44.583Z,2.53
2022-08-18T09:38:42.168Z,2.90
2022-08-18T09:41:35.589Z,2.95
2022-08-18T09:44:21.784Z,3.28
2022-08-18T09:46:59.382Z,3.90
2022-08-18T09:49:51.014Z,3.50
2022-08-18T09:52:58.944Z,3.55
2022-08-18T09:56:01.660Z,4.00
2022-08-18T09:59:02.952Z,3.80
2022-08-18T10:01:42.555Z,3.70
2022-08-18T10:04:31.824Z,3.63
2022-08-18T10:07:21.722Z,3.30
2022-08-18T10:10:12.796Z,3.05
2022-08-18T10:13:07.854Z,3.30
2022-08-18T10:16:10.275Z,3.00
2022-08-18T10:19:02.791Z,3.42
2022-08-18T10:22:07.576Z,3.00
2022-08-18T10:24:40.959Z,2.53
2022-08-18T10:27:39.054Z,2.70
2022-08-18T10:31:06.222Z,2.90
2022-08-18T10:34:05.535Z,2.90
2022-08-18T10:36:53.015Z,2.78
2022-08-18T10:39:24.430Z,3.08
2022-08-18T10:42:03.369Z,2.88
2022-08-18T10:44:38.535Z,2.67
2022-08-18T10:47:24.957Z,2.80
2022-08-18T10:50:06.819Z,3.63
2022-08-18T10:53:23.880Z,2.92
2022-08-18T10:55:56.839Z,2.80
2022-08-18T10:59:16.103Z,3.25
2022-08-18T11:02:11.134Z,3.45
2022-08-18T11:04:46.895Z,3.00
2022-08-18T11:07:34.061Z,3.20
2022-08-18T11:10:58.212Z,2.75
2022-08-18T11:13:14.317Z,2.50
2022-08-18T11:16:10.251Z,2.78
2022-08-18T11:18:45.321Z,2.50
2022-08-18T11:21:42.395Z,2.97
2022-08-18T11:24:16.527Z,3.03
2022-08-18T11:26:52.505Z,2.90
2022-08-18T11:29:32.945Z,3.30
2022-08-18T11:32:09.269Z,3.22
2022-08-18T11:34:52.139Z,3.78
2022-08-18T11:37:28.054Z,3.47
2022-08-18T11:43:29.939Z,3.30
2022-08-18T11:46:16.989Z,2.70
2022-08-18T11:51:57.499Z,2.88
2022-08-18T11:54:50.261Z,2.35
2022-08-18T11:57:46.253Z,2.70
2022-08-18T12:00:44.339Z,2.30
2022-08-18T12:03:24.064Z,2.22
2022-08-18T12:05:56.636Z,2.20
2022-08-18T12:08:57.562Z,2.55
2022-08-18T12:11:28.935Z,2.60
2022-08-18T12:16:55.127Z,2.40
2022-08-18T12:19:25.325Z,2.40
2022-08-18T12:21:59.555Z,2.13
2022-08-18T12:27:24.565Z,2.17
2022-08-18T12:29:55.213Z,1.73
2022-08-18T12:32:50.231Z,2.00
2022-08-18T12:35:16.242Z,2.20
2022-08-18T12:40:40.246Z,2.30
2022-08-18T12:43:09.021Z,2.25
2022-08-18T12:45:38.124Z,2.10
2022-08-18T12:48:07.665Z,2.13
2022-08-18T12:50:50.167Z,2.08
2022-08-18T12:53:29.572Z,2.42
2022-08-18T12:56:10.623Z,2.20
2022-08-18T12:58:40.456Z,2.28
2022-08-18T13:01:08.941Z,1.98
2022-08-18T13:03:38.405Z,2.45
2022-08-18T13:06:11.490Z,2.65
2022-08-18T13:08:50.295Z,2.17
2022-08-18T13:11:23.805Z,1.92
2022-08-18T13:13:57.119Z,2.10
2022-08-18T13:16:38.545Z,1.73
2022-08-18T13:19:08.028Z,1.85
2022-08-18T13:21:41.288Z,2.05
2022-08-18T13:24:12.758Z,2.03
2022-08-18T13:26:46.768Z,2.17
2022-08-18T13:29:18.430Z,1.65
2022-08-18T13:31:55.466Z,2.08
2022-08-18T13:34:24.589Z,2.15
2022-08-18T13:36:52.691Z,2.13
2022-08-18T13:39:24.093Z,2.22
2022-08-18T13:41:55.410Z,2.08
2022-08-18T13:44:29.097Z,1.95
2022-08-18T13:46:57.580Z,2.40
2022-08-18T13:49:30.477Z,1.80
2022-08-18T13:52:00.865Z,1.90
2022-08-18T13:54:35.450Z,1.98
2022-08-18T13:57:06.695Z,2.03
2022-08-18T13:59:35.013Z,1.70
2022-08-18T14:02:08.584Z,1.98
2022-08-18T14:04:38.558Z,1.90
2022-08-18T14:07:11.064Z,2.17
2022-08-18T14:09:39.895Z,1.80
2022-08-18T14:12:23.388Z,1.80
2022-08-18T14:14:55.631Z,1.80
2022-08-18T14:17:26.788Z,2.40
2022-08-18T14:20:15.196Z,2.30
2022-08-18T14:23:21.729Z,1.95
2022-08-18T14:26:09.660Z,1.65
2022-08-18T14:28:41.277Z,1.98
2022-08-18T14:31:11.700Z,1.65
2022-08-18T14:33:51.574Z,1.90
2022-08-18T14:36:30.050Z,2.03
2022-08-18T14:38:59.227Z,2.22
2022-08-18T14:41:27.844Z,2.35
2022-08-18T14:44:12.525Z,2.10
2022-08-18T14:46:51.862Z,2.08
2022-08-18T14:49:28.280Z,1.90
2022-08-18T14:51:57.876Z,1.98
2022-08-18T14:54:28.632Z,2.10
2022-08-18T14:56:59.803Z,1.98
2022-08-18T14:59:30.767Z,2.00
2022-08-18T15:02:03.264Z,2.13
2022-08-18T15:04:32.301Z,2.10
2022-08-18T15:07:10.159Z,2.28
2022-08-18T15:09:40.978Z,2.20
2022-08-18T15:12:09.602Z,2.10
2022-08-18T15:14:44.181Z,2.20
2022-08-18T15:17:14.584Z,2.40
2022-08-18T15:19:58.994Z,2.10
2022-08-18T15:22:47.800Z,1.98
2022-08-18T15:25:33.940Z,1.92
2022-08-18T15:28:02.289Z,2.20
2022-08-18T15:30:32.119Z,2.30
2022-08-18T15:33:03.112Z,2.45
2022-08-18T15:35:32.283Z,2.28
2022-08-18T15:38:05.115Z,2.13
2022-08-18T15:40:41.391Z,2.63
2022-08-18T15:43:10.606Z,2.22
2022-08-18T15:45:56.244Z,2.08
2022-08-18T15:48:28.514Z,3.42
2022-08-18T15:50:57.770Z,2.67
2022-08-18T15:53:44.571Z,2.20
2022-08-18T15:56:16.068Z,1.98
2022-08-18T15:58:49.445Z,2.20
2022-08-18T16:01:30.223Z,2.00
2022-08-18T16:03:59.874Z,1.80
2022-08-18T16:06:32.376Z,2.00
2022-08-18T16:09:03.467Z,1.70
2022-08-18T16:11:33.006Z,1.50
2022-08-18T16:14:01.178Z,2.00
2022-08-18T16:16:36.333Z,1.73
2022-08-18T16:19:07.877Z,1.80
2022-08-18T16:21:40.269Z,1.70
2022-08-18T16:24:09.535Z,1.42
2022-08-18T16:26:37.684Z,1.55
2022-08-18T16:29:05.908Z,1.50
2022-08-18T16:31:35.381Z,1.50
2022-08-18T16:34:04.422Z,1.50
2022-08-18T16:36:32.494Z,1.40
2022-08-18T16:39:01.033Z,1.30
2022-08-18T16:41:30.404Z,1.50
2022-08-18T16:43:58.521Z,1.38
2022-08-18T16:46:29.413Z,1.27
2022-08-18T16:48:59.941Z,1.38
2022-08-18T16:51:31.447Z,1.35
2022-08-18T16:53:59.589Z,1.27
2022-08-18T16:56:30.848Z,1.42
2022-08-18T16:59:16.763Z,1.30
2022-08-18T17:02:11.145Z,1.77
2022-08-18T17:04:41.688Z,1.48
2022-08-18T17:07:09.940Z,1.40
2022-08-18T17:09:38.066Z,1.40
2022-08-18T17:12:06.686Z,1.40
2022-08-18T17:14:36.808Z,1.60
2022-08-18T17:17:07.658Z,1.30
2022-08-18T17:19:37.537Z,1.30
2022-08-18T17:22:08.378Z,1.38
2022-08-18T17:24:37.582Z,1.45
2022-08-18T17:27:12.230Z,1.63
2022-08-18T17:30:04.071Z,1.40
2022-08-18T17:32:41.103Z,1.30
2022-08-18T17:35:17.724Z,1.60
2022-08-18T17:37:59.267Z,1.77
2022-08-18T17:40:32.469Z,1.48
2022-08-18T17:43:01.965Z,1.60
2022-08-18T17:45:35.969Z,2.15
2022-08-18T17:48:12.750Z,3.95
2022-08-18T17:51:11.070Z,1.90
2022-08-18T17:53:41.294Z,1.55
2022-08-18T17:56:16.200Z,1.60
2022-08-18T17:58:55.769Z,1.50
2022-08-18T18:01:27.388Z,1.80
2022-08-18T18:03:55.791Z,1.70
2022-08-18T18:06:38.865Z,2.67
2022-08-18T18:09:11.678Z,1.30
2022-08-18T18:11:42.620Z,1.70
2022-08-18T18:14:28.437Z,2.15
2022-08-18T18:17:12.735Z,1.38
2022-08-18T18:19:43.357Z,1.45
2022-08-18T18:22:21.271Z,1.55
2022-08-18T18:24:54.405Z,1.70
2022-08-18T18:27:31.396Z,1.88
2022-08-18T18:30:03.210Z,2.05
2022-08-18T18:32:38.455Z,1.85
2022-08-18T18:35:17.538Z,3.15
2022-08-18T18:37:51.558Z,2.63
2022-08-18T18:40:31.776Z,2.28
2022-08-18T18:43:21.769Z,3.28
2022-08-18T18:46:30.222Z,2.10
2022-08-18T18:49:17.096Z,2.13
2022-08-18T18:52:00.100Z,2.08
2022-08-18T18:54:50.228Z,1.92
2022-08-18T18:57:31.949Z,2.40
2022-08-18T19:00:18.097Z,2.30
2022-08-18T19:03:08.048Z,2.08
2022-08-18T19:05:42.694Z,2.38
2022-08-18T19:08:26.252Z,2.70
2022-08-18T19:11:01.419Z,2.60
2022-08-18T19:13:35.456Z,2.50
2022-08-18T19:16:23.264Z,2.47
2022-08-18T19:18:57.918Z,2.70
2022-08-18T19:22:04.787Z,3.10
2022-08-18T19:24:42.157Z,3.00
2022-08-18T19:27:23.388Z,2.90
2022-08-18T19:30:00.557Z,2.60
2022-08-18T19:32:39.400Z,2.93
2022-08-18T19:35:12.137Z,2.87
2022-08-18T19:38:01.837Z,3.70
2022-08-18T19:40:45.014Z,3.30
2022-08-18T19:43:26.512Z,3.40
2022-08-18T19:46:05.601Z,3.23
2022-08-18T19:48:44.446Z,3.17
2022-08-18T19:51:23.440Z,3.40
2022-08-18T19:54:19.119Z,3.80
2022-08-18T19:57:14.259Z,3.93
2022-08-18T20:00:05.677Z,3.93
2022-08-18T20:03:19.667Z,4.53
2022-08-18T20:06:32.574Z,3.83
2022-08-18T20:09:34.127Z,3.90
2022-08-18T20:12:37.680Z,3.77
2022-08-18T20:15:16.255Z,4.37
2022-08-18T20:18:23.981Z,4.30
2022-08-18T20:21:45.377Z,4.50
2022-08-18T20:24:41.640Z,4.37
2022-08-18T20:27:36.081Z,4.60
2022-08-18T20:30:27.081Z,5.10
2022-08-18T20:33:17.574Z,4.80
2022-08-18T20:35:59.490Z,4.50
2022-08-18T20:38:35.568Z,5.10
2022-08-18T20:41:39.181Z,5.10
2022-08-18T20:44:30.251Z,5.33
2022-08-18T20:47:16.712Z,6.07
2022-08-18T20:49:56.768Z,5.13
2022-08-18T20:52:38.705Z,5.00
2022-08-18T20:55:20.717Z,5.10
2022-08-18T20:57:54.850Z,4.60
2022-08-18T21:00:27.025Z,5.33
2022-08-18T21:02:58.538Z,5.57
2022-08-18T21:05:32.896Z,4.50
2022-08-18T21:08:17.845Z,5.87
2022-08-18T21:10:52.326Z,6.57
2022-08-18T21:13:35.338Z,6.53
2022-08-18T21:16:03.772Z,6.10
2022-08-18T21:18:35.030Z,5.90
2022-08-18T21:21:08.793Z,5.70
2022-08-18T21:23:42.381Z,6.60
2022-08-18T21:26:18.724Z,6.07
2022-08-18T21:28:52.701Z,5.77
2022-08-18T21:31:42.904Z,6.40
2022-08-18T21:34:18.285Z,6.23
2022-08-18T21:36:56.123Z,6.77
2022-08-18T21:39:26.087Z,6.00
2022-08-18T21:41:57.937Z,5.77
2022-08-18T21:44:41.661Z,5.53
2022-08-18T21:47:20.447Z,6.20
2022-08-18T21:50:01.328Z,5.53
2022-08-18T21:52:31.517Z,6.07
2022-08-18T21:55:06.900Z,6.60
2022-08-18T21:58:03.107Z,6.63
2022-08-18T22:00:35.774Z,5.97
2022-08-18T22:03:23.223Z,6.33
2022-08-18T22:06:03.427Z,6.80
2022-08-18T22:08:34.965Z,6.70
2022-08-18T22:11:59.497Z,6.87
2022-08-18T22:14:53.984Z,6.63
2022-08-18T22:17:32.320Z,6.60
2022-08-18T22:20:44.192Z,6.23
2022-08-18T22:23:51.410Z,6.00
2022-08-18T22:26:26.516Z,6.77
2022-08-18T22:29:00.503Z,6.43
2022-08-18T22:31:32.515Z,6.27
2022-08-18T22:34:05.092Z,6.63
2022-08-18T22:36:37.054Z,6.87
2022-08-18T22:39:08.554Z,7.03
2022-08-18T22:41:38.882Z,6.20
2022-08-18T22:44:08.022Z,7.10
2022-08-18T22:46:36.880Z,5.93
2022-08-18T22:49:05.789Z,6.50
2022-08-18T22:51:37.173Z,6.70
2022-08-18T22:54:08.313Z,6.60
2022-08-18T22:56:38.645Z,6.50
2022-08-18T22:59:15.921Z,6.67
2022-08-18T23:01:51.250Z,6.67
2022-08-18T23:04:22.050Z,6.77
2022-08-18T23:06:52.523Z,6.87
2022-08-18T23:09:23.615Z,7.07
2022-08-18T23:11:56.960Z,6.53
2022-08-18T23:14:25.529Z,6.77
2022-08-18T23:16:53.606Z,6.73
2022-08-18T23:19:22.780Z,6.87
2022-08-18T23:21:51.815Z,6.63
2022-08-18T23:24:21.731Z,7.10
2022-08-18T23:26:50.394Z,7.00
2022-08-18T23:29:21.399Z,6.77
2022-08-18T23:31:51.397Z,6.63
2022-08-18T23:34:24.993Z,6.63
2022-08-18T23:36:56.432Z,7.73
2022-08-18T23:39:26.186Z,6.53
2022-08-18T23:41:55.173Z,6.93
2022-08-18T23:44:27.678Z,7.00
2022-08-18T23:46:57.905Z,6.87
2022-08-18T23:49:26.415Z,6.47
2022-08-18T23:51:56.073Z,7.63
2022-08-18T23:54:28.432Z,8.10
2022-08-18T23:56:57.101Z,8.80
2022-08-18T23:59:28.400Z,10.10
